KCCA/CCA METAR and TAF weather

Enter ICAO airport designator
Station Type Date Time Source
KCCA METAR 2022/01/26 13:35 UTC NOAA

KCCA 261335Z AUTO VRB03KT 10SM CLR M06/M17 A3052 RMK AO2 TSNO


Station Type Date Time Source
KCCA Decoded METAR 2022/01/26 13:35 UTC NOAA

Station name not available
Jan 26, 2022 - 08:35 AM EST / 2022.01.26 1335 UTC
Wind: Variable at 3 MPH (3 KT):0
Visibility: 10 mile(s):0
Sky conditions: clear
Temperature: 21 F (-6 C)
Dew Point: 1 F (-17 C)
Relative Humidity: 41%
Pressure (altimeter): 30.52 in. Hg (1033 hPa)
ob: KCCA 261335Z AUTO VRB03KT 10SM CLR M06/M17 A3052 RMK AO2 TSNO
cycle: 13

Station Type Date Time Source
KCCA TAF UTC NOAA

Error!

Example: see airport list